KLGU/LGU METAR and TAF weather

Enter ICAO airport designator
Station Type Date Time Source
KLGU METAR 2024/06/16 09:51 UTC NOAA

KLGU 160951Z AUTO 00000KT 10SM CLR 12/03 A2996 RMK AO2 SLP096 T01170033


Station Type Date Time Source
KLGU Decoded METAR 2024/06/16 09:51 UTC NOAA

LOGAN CACHE AIRPORT, UT, United States (KLGU) 41-47N 111-51W 1355M
Jun 16, 2024 - 05:51 AM EDT / 2024.06.16 0951 UTC
Wind: Calm:0
Visibility: 10 mile(s):0
Sky conditions: clear
Temperature: 53.1 F (11.7 C)
Dew Point: 37.9 F (3.3 C)
Relative Humidity: 56%
Pressure (altimeter): 29.96 in. Hg (1014 hPa)
ob: KLGU 160951Z AUTO 00000KT 10SM CLR 12/03 A2996 RMK AO2 SLP096 T01170033
cycle: 10

Station Type Date Time Source
KLGU TAF 2024/06/16 06:45 UTC NOAA